sensor_id;sensor_type;location;lat;lon;timestamp;P1;durP1;ratioP1;P2;durP2;ratioP2
50815;SDS011;39717;47.324;8.788;2022-10-16T00:01:15;7.93;;;5.70;;
50815;SDS011;39717;47.324;8.788;2022-10-16T00:06:11;7.17;;;5.43;;
50815;SDS011;39717;47.324;8.788;2022-10-16T00:08:39;6.67;;;4.13;;
50815;SDS011;39717;47.324;8.788;2022-10-16T00:11:25;12.13;;;4.90;;
50815;SDS011;39717;47.324;8.788;2022-10-16T00:13:54;9.17;;;5.40;;
50815;SDS011;39717;47.324;8.788;2022-10-16T00:16:22;9.97;;;6.50;;
50815;SDS011;39717;47.324;8.788;2022-10-16T00:18:49;8.40;;;5.77;;
50815;SDS011;39717;47.324;8.788;2022-10-16T00:21:19;7.47;;;5.30;;
50815;SDS011;39717;47.324;8.788;2022-10-16T00:23:45;6.57;;;5.10;;
50815;SDS011;39717;47.324;8.788;2022-10-16T00:26:13;5.23;;;4.37;;
50815;SDS011;39717;47.324;8.788;2022-10-16T00:28:39;8.93;;;4.50;;
50815;SDS011;39717;47.324;8.788;2022-10-16T00:31:06;4.33;;;3.80;;
50815;SDS011;39717;47.324;8.788;2022-10-16T00:33:33;6.57;;;5.00;;
50815;SDS011;39717;47.324;8.788;2022-10-16T00:36:00;7.17;;;4.30;;
50815;SDS011;39717;47.324;8.788;2022-10-16T00:38:27;6.93;;;4.63;;
50815;SDS011;39717;47.324;8.788;2022-10-16T00:40:53;7.43;;;4.40;;
50815;SDS011;39717;47.324;8.788;2022-10-16T00:46:11;4.20;;;2.70;;
50815;SDS011;39717;47.324;8.788;2022-10-16T00:48:40;6.90;;;3.27;;
50815;SDS011;39717;47.324;8.788;2022-10-16T00:53:58;4.90;;;3.30;;
50815;SDS011;39717;47.324;8.788;2022-10-16T00:56:25;10.97;;;6.60;;
50815;SDS011;39717;47.324;8.788;2022-10-16T00:58:52;6.00;;;4.47;;
50815;SDS011;39717;47.324;8.788;2022-10-16T01:01:19;5.67;;;4.80;;
50815;SDS011;39717;47.324;8.788;2022-10-16T01:03:47;6.07;;;3.67;;
50815;SDS011;39717;47.324;8.788;2022-10-16T01:06:24;4.47;;;3.47;;
50815;SDS011;39717;47.324;8.788;2022-10-16T01:13:55;3.40;;;3.10;;
50815;SDS011;39717;47.324;8.788;2022-10-16T01:18:54;4.70;;;3.40;;
50815;SDS011;39717;47.324;8.788;2022-10-16T01:21:33;5.40;;;2.90;;
50815;SDS011;39717;47.324;8.788;2022-10-16T01:31:58;8.13;;;3.53;;
50815;SDS011;39717;47.324;8.788;2022-10-16T01:34:28;6.50;;;2.83;;
50815;SDS011;39717;47.324;8.788;2022-10-16T01:36:57;6.20;;;3.40;;
50815;SDS011;39717;47.324;8.788;2022-10-16T01:39:28;5.87;;;3.30;;
50815;SDS011;39717;47.324;8.788;2022-10-16T01:41:58;6.00;;;3.00;;
50815;SDS011;39717;47.324;8.788;2022-10-16T01:44:28;4.40;;;3.07;;
50815;SDS011;39717;47.324;8.788;2022-10-16T01:46:56;7.50;;;3.13;;
50815;SDS011;39717;47.324;8.788;2022-10-16T01:49:24;5.50;;;3.43;;
50815;SDS011;39717;47.324;8.788;2022-10-16T01:51:52;4.07;;;3.10;;
50815;SDS011;39717;47.324;8.788;2022-10-16T01:54:21;4.40;;;2.93;;
50815;SDS011;39717;47.324;8.788;2022-10-16T01:56:48;4.47;;;2.80;;
50815;SDS011;39717;47.324;8.788;2022-10-16T01:59:19;6.17;;;3.10;;
50815;SDS011;39717;47.324;8.788;2022-10-16T02:01:50;3.80;;;2.83;;
50815;SDS011;39717;47.324;8.788;2022-10-16T02:06:47;4.20;;;2.90;;
50815;SDS011;39717;47.324;8.788;2022-10-16T02:09:14;8.53;;;3.67;;
50815;SDS011;39717;47.324;8.788;2022-10-16T02:11:44;5.13;;;3.50;;
50815;SDS011;39717;47.324;8.788;2022-10-16T02:14:10;6.13;;;3.33;;
50815;SDS011;39717;47.324;8.788;2022-10-16T02:16:40;4.23;;;3.20;;
50815;SDS011;39717;47.324;8.788;2022-10-16T02:19:07;4.17;;;3.37;;
50815;SDS011;39717;47.324;8.788;2022-10-16T02:21:40;7.30;;;3.77;;
50815;SDS011;39717;47.324;8.788;2022-10-16T02:26:52;3.83;;;3.43;;
50815;SDS011;39717;47.324;8.788;2022-10-16T02:29:20;4.40;;;3.43;;
50815;SDS011;39717;47.324;8.788;2022-10-16T02:31:49;4.97;;;3.27;;
50815;SDS011;39717;47.324;8.788;2022-10-16T02:34:24;5.90;;;3.17;;
50815;SDS011;39717;47.324;8.788;2022-10-16T02:36:52;10.63;;;4.50;;
50815;SDS011;39717;47.324;8.788;2022-10-16T02:39:21;10.50;;;4.77;;
50815;SDS011;39717;47.324;8.788;2022-10-16T02:41:47;5.40;;;3.27;;
50815;SDS011;39717;47.324;8.788;2022-10-16T02:46:42;5.53;;;3.13;;
50815;SDS011;39717;47.324;8.788;2022-10-16T02:49:09;5.00;;;2.93;;
50815;SDS011;39717;47.324;8.788;2022-10-16T02:51:35;3.70;;;2.73;;
50815;SDS011;39717;47.324;8.788;2022-10-16T02:54:02;5.17;;;3.40;;
50815;SDS011;39717;47.324;8.788;2022-10-16T02:56:28;3.80;;;2.43;;
50815;SDS011;39717;47.324;8.788;2022-10-16T02:58:56;8.63;;;2.97;;
50815;SDS011;39717;47.324;8.788;2022-10-16T03:01:24;4.47;;;2.63;;
50815;SDS011;39717;47.324;8.788;2022-10-16T03:03:51;4.37;;;2.63;;
50815;SDS011;39717;47.324;8.788;2022-10-16T03:06:17;2.90;;;2.40;;
50815;SDS011;39717;47.324;8.788;2022-10-16T03:08:44;6.47;;;3.30;;
50815;SDS011;39717;47.324;8.788;2022-10-16T03:11:11;6.67;;;3.40;;
50815;SDS011;39717;47.324;8.788;2022-10-16T03:13:38;6.57;;;3.07;;
50815;SDS011;39717;47.324;8.788;2022-10-16T03:16:04;6.10;;;2.70;;
50815;SDS011;39717;47.324;8.788;2022-10-16T03:21:20;6.07;;;2.77;;
50815;SDS011;39717;47.324;8.788;2022-10-16T03:23:47;5.37;;;2.90;;
50815;SDS011;39717;47.324;8.788;2022-10-16T03:26:13;4.43;;;2.60;;
50815;SDS011;39717;47.324;8.788;2022-10-16T03:28:41;3.70;;;2.47;;
50815;SDS011;39717;47.324;8.788;2022-10-16T03:31:08;5.10;;;2.47;;
50815;SDS011;39717;47.324;8.788;2022-10-16T03:33:34;3.07;;;2.60;;
50815;SDS011;39717;47.324;8.788;2022-10-16T03:36:00;3.70;;;2.53;;
50815;SDS011;39717;47.324;8.788;2022-10-16T03:38:28;4.37;;;2.70;;
50815;SDS011;39717;47.324;8.788;2022-10-16T03:40:54;3.97;;;2.80;;
50815;SDS011;39717;47.324;8.788;2022-10-16T03:43:20;6.20;;;2.90;;
50815;SDS011;39717;47.324;8.788;2022-10-16T03:45:46;4.00;;;2.57;;
50815;SDS011;39717;47.324;8.788;2022-10-16T03:48:12;4.50;;;2.90;;
50815;SDS011;39717;47.324;8.788;2022-10-16T03:50:40;5.27;;;2.60;;
50815;SDS011;39717;47.324;8.788;2022-10-16T03:53:08;3.97;;;2.50;;
50815;SDS011;39717;47.324;8.788;2022-10-16T03:55:34;3.50;;;2.23;;
50815;SDS011;39717;47.324;8.788;2022-10-16T03:58:00;3.30;;;1.93;;
50815;SDS011;39717;47.324;8.788;2022-10-16T04:00:27;3.80;;;2.60;;
50815;SDS011;39717;47.324;8.788;2022-10-16T04:02:54;3.23;;;2.50;;
50815;SDS011;39717;47.324;8.788;2022-10-16T04:05:20;6.13;;;2.47;;
50815;SDS011;39717;47.324;8.788;2022-10-16T04:07:46;3.77;;;2.20;;
50815;SDS011;39717;47.324;8.788;2022-10-16T04:10:13;3.30;;;2.10;;
50815;SDS011;39717;47.324;8.788;2022-10-16T04:12:39;3.90;;;2.20;;
50815;SDS011;39717;47.324;8.788;2022-10-16T04:15:07;2.67;;;2.07;;
50815;SDS011;39717;47.324;8.788;2022-10-16T04:17:34;2.93;;;2.10;;
50815;SDS011;39717;47.324;8.788;2022-10-16T04:20:02;2.43;;;2.23;;
50815;SDS011;39717;47.324;8.788;2022-10-16T04:22:29;4.57;;;2.33;;
50815;SDS011;39717;47.324;8.788;2022-10-16T04:24:56;6.57;;;2.20;;
50815;SDS011;39717;47.324;8.788;2022-10-16T04:27:23;2.77;;;2.47;;
50815;SDS011;39717;47.324;8.788;2022-10-16T04:29:49;3.93;;;2.30;;
50815;SDS011;39717;47.324;8.788;2022-10-16T04:32:15;4.73;;;2.10;;
50815;SDS011;39717;47.324;8.788;2022-10-16T04:34:41;2.93;;;1.80;;
50815;SDS011;39717;47.324;8.788;2022-10-16T04:39:58;3.53;;;2.07;;
50815;SDS011;39717;47.324;8.788;2022-10-16T04:42:25;3.43;;;2.13;;
50815;SDS011;39717;47.324;8.788;2022-10-16T04:44:51;3.47;;;2.07;;
50815;SDS011;39717;47.324;8.788;2022-10-16T04:47:17;3.40;;;1.63;;
50815;SDS011;39717;47.324;8.788;2022-10-16T04:49:43;3.80;;;1.90;;
50815;SDS011;39717;47.324;8.788;2022-10-16T04:52:09;2.90;;;1.90;;
50815;SDS011;39717;47.324;8.788;2022-10-16T04:54:35;2.73;;;2.00;;
50815;SDS011;39717;47.324;8.788;2022-10-16T04:57:02;3.03;;;1.73;;
50815;SDS011;39717;47.324;8.788;2022-10-16T04:59:29;1.90;;;1.77;;
50815;SDS011;39717;47.324;8.788;2022-10-16T05:01:56;2.97;;;2.20;;
50815;SDS011;39717;47.324;8.788;2022-10-16T05:04:23;4.97;;;3.10;;
50815;SDS011;39717;47.324;8.788;2022-10-16T05:06:49;5.13;;;2.80;;
50815;SDS011;39717;47.324;8.788;2022-10-16T05:09:15;5.23;;;3.10;;
50815;SDS011;39717;47.324;8.788;2022-10-16T05:11:41;4.00;;;2.60;;
50815;SDS011;39717;47.324;8.788;2022-10-16T05:14:07;4.37;;;2.43;;
50815;SDS011;39717;47.324;8.788;2022-10-16T05:16:34;5.30;;;2.70;;
50815;SDS011;39717;47.324;8.788;2022-10-16T05:19:01;8.27;;;2.73;;
50815;SDS011;39717;47.324;8.788;2022-10-16T05:21:28;3.17;;;2.30;;
50815;SDS011;39717;47.324;8.788;2022-10-16T05:23:54;3.83;;;2.30;;
50815;SDS011;39717;47.324;8.788;2022-10-16T05:26:22;3.90;;;2.50;;
50815;SDS011;39717;47.324;8.788;2022-10-16T05:28:50;3.03;;;2.23;;
50815;SDS011;39717;47.324;8.788;2022-10-16T05:31:16;4.77;;;2.50;;
50815;SDS011;39717;47.324;8.788;2022-10-16T05:33:42;4.13;;;2.77;;
50815;SDS011;39717;47.324;8.788;2022-10-16T05:36:09;4.70;;;2.20;;
50815;SDS011;39717;47.324;8.788;2022-10-16T05:38:36;3.30;;;2.30;;
50815;SDS011;39717;47.324;8.788;2022-10-16T05:41:04;5.70;;;2.53;;
50815;SDS011;39717;47.324;8.788;2022-10-16T05:43:31;2.37;;;1.93;;
50815;SDS011;39717;47.324;8.788;2022-10-16T05:45:58;4.83;;;2.17;;
50815;SDS011;39717;47.324;8.788;2022-10-16T05:48:25;3.10;;;1.80;;
50815;SDS011;39717;47.324;8.788;2022-10-16T05:51:24;5.23;;;2.43;;
50815;SDS011;39717;47.324;8.788;2022-10-16T05:53:44;5.60;;;2.33;;
50815;SDS011;39717;47.324;8.788;2022-10-16T05:56:10;5.77;;;2.30;;
50815;SDS011;39717;47.324;8.788;2022-10-16T05:58:39;4.27;;;1.90;;
50815;SDS011;39717;47.324;8.788;2022-10-16T06:01:16;3.13;;;1.90;;
50815;SDS011;39717;47.324;8.788;2022-10-16T06:03:42;3.63;;;2.00;;
50815;SDS011;39717;47.324;8.788;2022-10-16T06:09:06;4.13;;;1.97;;
50815;SDS011;39717;47.324;8.788;2022-10-16T06:11:35;2.60;;;2.00;;
50815;SDS011;39717;47.324;8.788;2022-10-16T06:14:03;3.87;;;1.73;;
50815;SDS011;39717;47.324;8.788;2022-10-16T06:19:22;3.30;;;2.20;;
50815;SDS011;39717;47.324;8.788;2022-10-16T06:21:48;5.87;;;2.03;;
50815;SDS011;39717;47.324;8.788;2022-10-16T06:24:15;4.23;;;1.97;;
50815;SDS011;39717;47.324;8.788;2022-10-16T06:26:41;3.07;;;2.10;;
50815;SDS011;39717;47.324;8.788;2022-10-16T06:29:08;4.07;;;2.20;;
50815;SDS011;39717;47.324;8.788;2022-10-16T06:31:35;3.80;;;2.60;;
50815;SDS011;39717;47.324;8.788;2022-10-16T06:34:01;2.20;;;2.00;;
50815;SDS011;39717;47.324;8.788;2022-10-16T06:36:29;4.20;;;2.63;;
50815;SDS011;39717;47.324;8.788;2022-10-16T06:38:55;4.00;;;1.80;;
50815;SDS011;39717;47.324;8.788;2022-10-16T06:41:23;4.20;;;2.03;;
50815;SDS011;39717;47.324;8.788;2022-10-16T06:43:49;4.03;;;2.00;;
50815;SDS011;39717;47.324;8.788;2022-10-16T06:46:17;3.63;;;1.90;;
50815;SDS011;39717;47.324;8.788;2022-10-16T06:48:43;4.07;;;2.30;;
50815;SDS011;39717;47.324;8.788;2022-10-16T06:51:17;3.67;;;2.30;;
50815;SDS011;39717;47.324;8.788;2022-10-16T06:53:44;3.83;;;2.10;;
50815;SDS011;39717;47.324;8.788;2022-10-16T06:56:15;4.53;;;2.30;;
50815;SDS011;39717;47.324;8.788;2022-10-16T06:58:44;4.23;;;2.03;;
50815;SDS011;39717;47.324;8.788;2022-10-16T07:01:12;4.87;;;2.50;;
50815;SDS011;39717;47.324;8.788;2022-10-16T07:03:40;2.90;;;2.50;;
50815;SDS011;39717;47.324;8.788;2022-10-16T07:06:08;4.63;;;2.20;;
50815;SDS011;39717;47.324;8.788;2022-10-16T07:08:37;4.93;;;2.10;;
50815;SDS011;39717;47.324;8.788;2022-10-16T07:11:11;5.80;;;2.30;;
50815;SDS011;39717;47.324;8.788;2022-10-16T07:13:38;3.30;;;2.10;;
50815;SDS011;39717;47.324;8.788;2022-10-16T07:16:08;4.37;;;2.40;;
50815;SDS011;39717;47.324;8.788;2022-10-16T07:18:34;3.43;;;2.70;;
50815;SDS011;39717;47.324;8.788;2022-10-16T07:23:32;4.97;;;2.47;;
50815;SDS011;39717;47.324;8.788;2022-10-16T07:25:58;3.40;;;2.50;;
50815;SDS011;39717;47.324;8.788;2022-10-16T07:30:53;2.93;;;2.63;;
50815;SDS011;39717;47.324;8.788;2022-10-16T07:33:21;3.83;;;2.23;;
50815;SDS011;39717;47.324;8.788;2022-10-16T07:35:49;5.23;;;2.97;;
50815;SDS011;39717;47.324;8.788;2022-10-16T07:38:15;5.33;;;3.13;;
50815;SDS011;39717;47.324;8.788;2022-10-16T07:40:43;6.03;;;2.83;;
50815;SDS011;39717;47.324;8.788;2022-10-16T07:43:10;4.63;;;2.80;;
50815;SDS011;39717;47.324;8.788;2022-10-16T07:45:37;4.10;;;2.70;;
50815;SDS011;39717;47.324;8.788;2022-10-16T07:48:03;6.27;;;2.00;;
50815;SDS011;39717;47.324;8.788;2022-10-16T07:50:29;2.53;;;2.33;;
50815;SDS011;39717;47.324;8.788;2022-10-16T07:52:55;6.23;;;2.27;;
50815;SDS011;39717;47.324;8.788;2022-10-16T07:55:22;5.33;;;2.13;;
50815;SDS011;39717;47.324;8.788;2022-10-16T07:57:48;3.67;;;2.67;;
50815;SDS011;39717;47.324;8.788;2022-10-16T08:00:14;4.57;;;3.10;;
50815;SDS011;39717;47.324;8.788;2022-10-16T08:02:40;5.83;;;3.03;;
50815;SDS011;39717;47.324;8.788;2022-10-16T08:05:12;3.43;;;3.10;;
50815;SDS011;39717;47.324;8.788;2022-10-16T08:10:18;6.83;;;3.50;;
50815;SDS011;39717;47.324;8.788;2022-10-16T08:12:44;3.00;;;2.70;;
50815;SDS011;39717;47.324;8.788;2022-10-16T08:15:11;3.53;;;2.97;;
50815;SDS011;39717;47.324;8.788;2022-10-16T08:17:37;6.03;;;3.40;;
50815;SDS011;39717;47.324;8.788;2022-10-16T08:22:33;5.53;;;3.87;;
50815;SDS011;39717;47.324;8.788;2022-10-16T08:25:02;4.73;;;3.13;;
50815;SDS011;39717;47.324;8.788;2022-10-16T08:27:31;5.67;;;3.50;;
50815;SDS011;39717;47.324;8.788;2022-10-16T08:32:27;9.50;;;4.23;;
50815;SDS011;39717;47.324;8.788;2022-10-16T08:37:22;3.77;;;3.03;;
50815;SDS011;39717;47.324;8.788;2022-10-16T08:48:24;4.30;;;3.70;;
50815;SDS011;39717;47.324;8.788;2022-10-16T08:50:49;6.07;;;3.50;;
50815;SDS011;39717;47.324;8.788;2022-10-16T08:53:38;6.60;;;3.80;;
50815;SDS011;39717;47.324;8.788;2022-10-16T08:56:06;5.67;;;3.70;;
50815;SDS011;39717;47.324;8.788;2022-10-16T08:58:32;6.07;;;3.73;;
50815;SDS011;39717;47.324;8.788;2022-10-16T09:01:00;3.87;;;3.20;;
50815;SDS011;39717;47.324;8.788;2022-10-16T09:06:06;4.53;;;2.83;;
50815;SDS011;39717;47.324;8.788;2022-10-16T09:16:50;4.30;;;2.40;;
50815;SDS011;39717;47.324;8.788;2022-10-16T09:19:23;4.57;;;2.90;;
50815;SDS011;39717;47.324;8.788;2022-10-16T09:21:50;3.03;;;2.10;;
50815;SDS011;39717;47.324;8.788;2022-10-16T09:24:19;2.43;;;1.80;;
50815;SDS011;39717;47.324;8.788;2022-10-16T09:26:46;4.33;;;2.00;;
50815;SDS011;39717;47.324;8.788;2022-10-16T09:29:13;3.47;;;1.90;;
50815;SDS011;39717;47.324;8.788;2022-10-16T09:31:40;2.17;;;1.70;;
50815;SDS011;39717;47.324;8.788;2022-10-16T09:34:08;3.33;;;1.47;;
50815;SDS011;39717;47.324;8.788;2022-10-16T09:36:44;1.50;;;1.40;;
50815;SDS011;39717;47.324;8.788;2022-10-16T09:39:11;2.10;;;1.57;;
50815;SDS011;39717;47.324;8.788;2022-10-16T09:41:44;1.50;;;1.40;;
50815;SDS011;39717;47.324;8.788;2022-10-16T09:44:24;3.10;;;1.53;;
50815;SDS011;39717;47.324;8.788;2022-10-16T09:47:03;1.53;;;1.40;;
50815;SDS011;39717;47.324;8.788;2022-10-16T09:52:32;2.20;;;1.70;;
50815;SDS011;39717;47.324;8.788;2022-10-16T09:55:00;1.23;;;1.17;;
50815;SDS011;39717;47.324;8.788;2022-10-16T09:57:26;2.87;;;1.43;;
50815;SDS011;39717;47.324;8.788;2022-10-16T09:59:57;1.87;;;1.23;;
50815;SDS011;39717;47.324;8.788;2022-10-16T10:02:29;1.40;;;0.90;;
50815;SDS011;39717;47.324;8.788;2022-10-16T10:04:57;1.17;;;1.07;;
50815;SDS011;39717;47.324;8.788;2022-10-16T10:07:26;2.30;;;1.40;;
50815;SDS011;39717;47.324;8.788;2022-10-16T10:09:53;2.03;;;1.60;;
50815;SDS011;39717;47.324;8.788;2022-10-16T10:12:23;1.00;;;1.00;;
50815;SDS011;39717;47.324;8.788;2022-10-16T10:14:56;3.80;;;1.13;;
50815;SDS011;39717;47.324;8.788;2022-10-16T10:17:23;1.37;;;0.93;;
50815;SDS011;39717;47.324;8.788;2022-10-16T10:20:00;1.37;;;1.00;;
50815;SDS011;39717;47.324;8.788;2022-10-16T10:33:11;1.17;;;1.07;;
50815;SDS011;39717;47.324;8.788;2022-10-16T10:38:41;2.57;;;1.00;;
50815;SDS011;39717;47.324;8.788;2022-10-16T10:52:41;1.43;;;1.33;;
50815;SDS011;39717;47.324;8.788;2022-10-16T11:06:25;1.43;;;1.20;;
50815;SDS011;39717;47.324;8.788;2022-10-16T11:08:50;2.77;;;1.23;;
50815;SDS011;39717;47.324;8.788;2022-10-16T11:11:22;2.00;;;1.43;;
50815;SDS011;39717;47.324;8.788;2022-10-16T11:16:35;1.40;;;1.30;;
50815;SDS011;39717;47.324;8.788;2022-10-16T11:21:28;1.73;;;1.30;;
50815;SDS011;39717;47.324;8.788;2022-10-16T11:26:34;3.37;;;1.40;;
50815;SDS011;39717;47.324;8.788;2022-10-16T11:29:02;2.47;;;1.50;;
50815;SDS011;39717;47.324;8.788;2022-10-16T11:31:45;2.73;;;1.50;;
50815;SDS011;39717;47.324;8.788;2022-10-16T11:34:25;3.37;;;1.53;;
50815;SDS011;39717;47.324;8.788;2022-10-16T11:36:57;1.40;;;1.30;;
50815;SDS011;39717;47.324;8.788;2022-10-16T11:39:28;2.90;;;1.80;;
50815;SDS011;39717;47.324;8.788;2022-10-16T11:47:02;2.37;;;1.33;;
50815;SDS011;39717;47.324;8.788;2022-10-16T11:49:32;2.07;;;1.50;;
50815;SDS011;39717;47.324;8.788;2022-10-16T11:52:06;1.63;;;1.10;;
50815;SDS011;39717;47.324;8.788;2022-10-16T11:57:01;2.80;;;1.47;;
50815;SDS011;39717;47.324;8.788;2022-10-16T12:07:32;1.50;;;1.40;;
50815;SDS011;39717;47.324;8.788;2022-10-16T12:10:23;2.57;;;1.43;;
50815;SDS011;39717;47.324;8.788;2022-10-16T12:12:51;3.10;;;1.47;;
50815;SDS011;39717;47.324;8.788;2022-10-16T12:17:45;4.07;;;1.57;;
50815;SDS011;39717;47.324;8.788;2022-10-16T12:30:40;1.47;;;1.30;;
50815;SDS011;39717;47.324;8.788;2022-10-16T12:35:52;2.37;;;1.40;;
50815;SDS011;39717;47.324;8.788;2022-10-16T12:38:21;2.70;;;1.47;;
50815;SDS011;39717;47.324;8.788;2022-10-16T12:41:03;1.50;;;1.37;;
50815;SDS011;39717;47.324;8.788;2022-10-16T12:43:38;1.87;;;1.40;;
50815;SDS011;39717;47.324;8.788;2022-10-16T12:48:40;1.67;;;1.40;;
50815;SDS011;39717;47.324;8.788;2022-10-16T12:51:11;1.57;;;1.17;;
50815;SDS011;39717;47.324;8.788;2022-10-16T12:53:38;1.50;;;1.13;;
50815;SDS011;39717;47.324;8.788;2022-10-16T12:56:22;2.17;;;1.40;;
50815;SDS011;39717;47.324;8.788;2022-10-16T13:01:42;2.67;;;1.37;;
50815;SDS011;39717;47.324;8.788;2022-10-16T13:04:16;2.00;;;1.40;;
50815;SDS011;39717;47.324;8.788;2022-10-16T13:07:10;2.37;;;1.50;;
50815;SDS011;39717;47.324;8.788;2022-10-16T13:09:40;1.50;;;1.40;;
50815;SDS011;39717;47.324;8.788;2022-10-16T13:12:54;2.10;;;1.20;;
50815;SDS011;39717;47.324;8.788;2022-10-16T13:15:02;2.83;;;1.40;;
50815;SDS011;39717;47.324;8.788;2022-10-16T13:28:15;1.97;;;1.20;;
50815;SDS011;39717;47.324;8.788;2022-10-16T13:30:43;2.63;;;1.50;;
50815;SDS011;39717;47.324;8.788;2022-10-16T13:33:14;4.63;;;1.07;;
50815;SDS011;39717;47.324;8.788;2022-10-16T13:38:27;4.27;;;1.40;;
50815;SDS011;39717;47.324;8.788;2022-10-16T13:43:50;1.33;;;1.20;;
50815;SDS011;39717;47.324;8.788;2022-10-16T13:46:18;2.80;;;0.90;;
50815;SDS011;39717;47.324;8.788;2022-10-16T13:48:45;1.10;;;1.00;;
50815;SDS011;39717;47.324;8.788;2022-10-16T13:51:21;1.57;;;1.20;;
50815;SDS011;39717;47.324;8.788;2022-10-16T13:53:48;1.20;;;1.10;;
50815;SDS011;39717;47.324;8.788;2022-10-16T13:56:15;1.37;;;1.27;;
50815;SDS011;39717;47.324;8.788;2022-10-16T13:58:42;1.33;;;1.30;;
50815;SDS011;39717;47.324;8.788;2022-10-16T14:01:25;1.20;;;1.10;;
50815;SDS011;39717;47.324;8.788;2022-10-16T14:03:52;3.20;;;1.30;;
50815;SDS011;39717;47.324;8.788;2022-10-16T14:06:19;1.57;;;1.30;;
50815;SDS011;39717;47.324;8.788;2022-10-16T14:08:50;2.07;;;1.20;;
50815;SDS011;39717;47.324;8.788;2022-10-16T14:11:23;1.90;;;1.30;;
50815;SDS011;39717;47.324;8.788;2022-10-16T14:13:49;1.87;;;1.30;;
50815;SDS011;39717;47.324;8.788;2022-10-16T14:16:18;1.63;;;1.40;;
50815;SDS011;39717;47.324;8.788;2022-10-16T14:18:55;1.57;;;1.47;;
50815;SDS011;39717;47.324;8.788;2022-10-16T14:21:22;1.63;;;1.40;;
50815;SDS011;39717;47.324;8.788;2022-10-16T14:23:48;2.70;;;1.30;;
50815;SDS011;39717;47.324;8.788;2022-10-16T14:26:16;1.50;;;1.30;;
50815;SDS011;39717;47.324;8.788;2022-10-16T14:28:42;1.30;;;1.20;;
50815;SDS011;39717;47.324;8.788;2022-10-16T14:31:29;3.70;;;1.33;;
50815;SDS011;39717;47.324;8.788;2022-10-16T14:33:55;2.37;;;1.60;;
50815;SDS011;39717;47.324;8.788;2022-10-16T14:36:22;3.37;;;1.80;;
50815;SDS011;39717;47.324;8.788;2022-10-16T14:39:14;4.87;;;2.10;;
50815;SDS011;39717;47.324;8.788;2022-10-16T14:41:43;4.90;;;2.10;;
50815;SDS011;39717;47.324;8.788;2022-10-16T14:44:11;3.43;;;1.70;;
50815;SDS011;39717;47.324;8.788;2022-10-16T14:46:38;5.03;;;1.90;;
50815;SDS011;39717;47.324;8.788;2022-10-16T14:51:35;1.53;;;1.43;;
50815;SDS011;39717;47.324;8.788;2022-10-16T14:54:02;2.67;;;1.93;;
50815;SDS011;39717;47.324;8.788;2022-10-16T14:56:30;4.13;;;2.00;;
50815;SDS011;39717;47.324;8.788;2022-10-16T15:01:47;2.20;;;1.70;;
50815;SDS011;39717;47.324;8.788;2022-10-16T15:04:15;1.70;;;1.60;;
50815;SDS011;39717;47.324;8.788;2022-10-16T15:06:42;2.57;;;1.70;;
50815;SDS011;39717;47.324;8.788;2022-10-16T15:09:10;2.30;;;1.80;;
50815;SDS011;39717;47.324;8.788;2022-10-16T15:11:36;2.43;;;1.80;;
50815;SDS011;39717;47.324;8.788;2022-10-16T15:14:04;2.60;;;1.83;;
50815;SDS011;39717;47.324;8.788;2022-10-16T15:16:36;3.70;;;1.97;;
50815;SDS011;39717;47.324;8.788;2022-10-16T15:19:04;1.80;;;1.70;;
50815;SDS011;39717;47.324;8.788;2022-10-16T15:21:32;4.43;;;1.70;;
50815;SDS011;39717;47.324;8.788;2022-10-16T15:24:00;2.30;;;1.57;;
50815;SDS011;39717;47.324;8.788;2022-10-16T15:26:27;1.60;;;1.50;;
50815;SDS011;39717;47.324;8.788;2022-10-16T15:28:55;3.00;;;1.70;;
50815;SDS011;39717;47.324;8.788;2022-10-16T15:31:22;6.57;;;2.33;;
50815;SDS011;39717;47.324;8.788;2022-10-16T15:33:55;3.93;;;2.30;;
50815;SDS011;39717;47.324;8.788;2022-10-16T15:41:41;2.47;;;1.83;;
50815;SDS011;39717;47.324;8.788;2022-10-16T15:44:10;3.93;;;1.90;;
50815;SDS011;39717;47.324;8.788;2022-10-16T15:46:36;5.03;;;2.30;;
50815;SDS011;39717;47.324;8.788;2022-10-16T15:49:03;2.47;;;2.17;;
50815;SDS011;39717;47.324;8.788;2022-10-16T15:51:29;5.50;;;2.20;;
50815;SDS011;39717;47.324;8.788;2022-10-16T15:53:58;2.43;;;2.00;;
50815;SDS011;39717;47.324;8.788;2022-10-16T15:56:29;3.53;;;2.10;;
50815;SDS011;39717;47.324;8.788;2022-10-16T15:58:58;3.17;;;2.20;;
50815;SDS011;39717;47.324;8.788;2022-10-16T16:01:26;3.30;;;2.30;;
50815;SDS011;39717;47.324;8.788;2022-10-16T16:03:55;3.93;;;1.87;;
50815;SDS011;39717;47.324;8.788;2022-10-16T16:06:21;3.20;;;1.90;;
50815;SDS011;39717;47.324;8.788;2022-10-16T16:08:49;2.83;;;2.00;;
50815;SDS011;39717;47.324;8.788;2022-10-16T16:11:16;4.40;;;1.83;;
50815;SDS011;39717;47.324;8.788;2022-10-16T16:13:42;2.30;;;1.97;;
50815;SDS011;39717;47.324;8.788;2022-10-16T16:16:09;2.57;;;1.97;;
50815;SDS011;39717;47.324;8.788;2022-10-16T16:18:36;2.87;;;1.93;;
50815;SDS011;39717;47.324;8.788;2022-10-16T16:21:02;3.40;;;1.97;;
50815;SDS011;39717;47.324;8.788;2022-10-16T16:23:31;5.07;;;2.10;;
50815;SDS011;39717;47.324;8.788;2022-10-16T16:28:35;3.87;;;2.27;;
50815;SDS011;39717;47.324;8.788;2022-10-16T16:31:02;5.53;;;2.57;;
50815;SDS011;39717;47.324;8.788;2022-10-16T16:33:28;6.23;;;3.00;;
50815;SDS011;39717;47.324;8.788;2022-10-16T16:38:49;4.87;;;2.83;;
50815;SDS011;39717;47.324;8.788;2022-10-16T16:41:18;4.43;;;2.60;;
50815;SDS011;39717;47.324;8.788;2022-10-16T16:43:45;5.63;;;3.13;;
50815;SDS011;39717;47.324;8.788;2022-10-16T16:46:12;6.33;;;3.07;;
50815;SDS011;39717;47.324;8.788;2022-10-16T16:48:39;4.87;;;2.97;;
50815;SDS011;39717;47.324;8.788;2022-10-16T16:51:13;6.67;;;4.67;;
50815;SDS011;39717;47.324;8.788;2022-10-16T16:53:45;8.73;;;5.93;;
50815;SDS011;39717;47.324;8.788;2022-10-16T16:56:12;8.93;;;5.80;;
50815;SDS011;39717;47.324;8.788;2022-10-16T17:01:25;6.20;;;5.57;;
50815;SDS011;39717;47.324;8.788;2022-10-16T17:03:58;8.80;;;5.50;;
50815;SDS011;39717;47.324;8.788;2022-10-16T17:06:27;11.63;;;6.77;;
50815;SDS011;39717;47.324;8.788;2022-10-16T17:08:57;8.23;;;6.97;;
50815;SDS011;39717;47.324;8.788;2022-10-16T17:11:26;9.30;;;6.50;;
50815;SDS011;39717;47.324;8.788;2022-10-16T17:13:54;11.37;;;6.90;;
50815;SDS011;39717;47.324;8.788;2022-10-16T17:16:21;9.83;;;6.40;;
50815;SDS011;39717;47.324;8.788;2022-10-16T17:18:48;9.47;;;6.23;;
50815;SDS011;39717;47.324;8.788;2022-10-16T17:21:14;15.17;;;7.17;;
50815;SDS011;39717;47.324;8.788;2022-10-16T17:23:40;10.30;;;6.03;;
50815;SDS011;39717;47.324;8.788;2022-10-16T17:26:08;13.40;;;6.43;;
50815;SDS011;39717;47.324;8.788;2022-10-16T17:28:35;8.03;;;5.77;;
50815;SDS011;39717;47.324;8.788;2022-10-16T17:31:21;5.40;;;4.80;;
50815;SDS011;39717;47.324;8.788;2022-10-16T17:33:47;4.57;;;4.13;;
50815;SDS011;39717;47.324;8.788;2022-10-16T17:36:18;4.87;;;4.10;;
50815;SDS011;39717;47.324;8.788;2022-10-16T17:38:45;6.00;;;4.47;;
50815;SDS011;39717;47.324;8.788;2022-10-16T17:41:16;5.17;;;4.17;;
50815;SDS011;39717;47.324;8.788;2022-10-16T17:43:43;5.40;;;4.77;;
50815;SDS011;39717;47.324;8.788;2022-10-16T17:46:10;5.67;;;4.83;;
50815;SDS011;39717;47.324;8.788;2022-10-16T17:48:37;5.67;;;4.83;;
50815;SDS011;39717;47.324;8.788;2022-10-16T17:51:04;9.73;;;4.90;;
50815;SDS011;39717;47.324;8.788;2022-10-16T17:53:32;7.63;;;4.63;;
50815;SDS011;39717;47.324;8.788;2022-10-16T17:56:07;6.07;;;4.63;;
50815;SDS011;39717;47.324;8.788;2022-10-16T17:58:34;5.60;;;4.50;;
50815;SDS011;39717;47.324;8.788;2022-10-16T18:01:12;8.30;;;4.83;;
50815;SDS011;39717;47.324;8.788;2022-10-16T18:03:39;10.00;;;3.93;;
50815;SDS011;39717;47.324;8.788;2022-10-16T18:06:05;6.40;;;4.23;;
50815;SDS011;39717;47.324;8.788;2022-10-16T18:08:32;7.37;;;4.40;;
50815;SDS011;39717;47.324;8.788;2022-10-16T18:11:02;8.27;;;4.70;;
50815;SDS011;39717;47.324;8.788;2022-10-16T18:13:30;4.77;;;4.23;;